sensor_id;sensor_type;location;lat;lon;timestamp;temperature;humidity
25983;DHT22;13773;48.868;10.730;2024-03-29T00:00:53;3.60;99.90
25983;DHT22;13773;48.868;10.730;2024-03-29T00:03:19;3.50;99.90
25983;DHT22;13773;48.868;10.730;2024-03-29T00:05:44;3.30;99.90
25983;DHT22;13773;48.868;10.730;2024-03-29T00:08:10;3.40;99.90
25983;DHT22;13773;48.868;10.730;2024-03-29T00:10:36;3.40;99.90
25983;DHT22;13773;48.868;10.730;2024-03-29T00:13:02;3.20;99.90
25983;DHT22;13773;48.868;10.730;2024-03-29T00:15:27;3.10;99.90
25983;DHT22;13773;48.868;10.730;2024-03-29T00:17:53;3.00;99.90
25983;DHT22;13773;48.868;10.730;2024-03-29T00:20:19;3.20;99.90
25983;DHT22;13773;48.868;10.730;2024-03-29T00:22:46;3.50;99.90
25983;DHT22;13773;48.868;10.730;2024-03-29T00:25:12;3.40;99.90
25983;DHT22;13773;48.868;10.730;2024-03-29T00:27:38;3.30;99.90
25983;DHT22;13773;48.868;10.730;2024-03-29T00:30:04;3.60;99.90
25983;DHT22;13773;48.868;10.730;2024-03-29T00:32:30;3.60;99.90
25983;DHT22;13773;48.868;10.730;2024-03-29T00:34:55;3.50;99.90
25983;DHT22;13773;48.868;10.730;2024-03-29T00:37:23;3.30;99.90
25983;DHT22;13773;48.868;10.730;2024-03-29T00:39:49;3.20;99.90
25983;DHT22;13773;48.868;10.730;2024-03-29T00:42:15;3.20;99.90
25983;DHT22;13773;48.868;10.730;2024-03-29T00:44:42;3.10;99.90
25983;DHT22;13773;48.868;10.730;2024-03-29T00:47:09;3.10;99.90
25983;DHT22;13773;48.868;10.730;2024-03-29T00:49:35;3.10;99.90
25983;DHT22;13773;48.868;10.730;2024-03-29T00:52:01;3.10;99.90
25983;DHT22;13773;48.868;10.730;2024-03-29T00:54:31;3.10;99.90
25983;DHT22;13773;48.868;10.730;2024-03-29T00:56:56;3.20;99.90
25983;DHT22;13773;48.868;10.730;2024-03-29T00:59:22;3.20;99.90
25983;DHT22;13773;48.868;10.730;2024-03-29T01:01:48;3.10;99.90
25983;DHT22;13773;48.868;10.730;2024-03-29T01:04:14;3.10;99.90
25983;DHT22;13773;48.868;10.730;2024-03-29T01:06:40;3.10;99.90
25983;DHT22;13773;48.868;10.730;2024-03-29T01:09:06;3.10;99.90
25983;DHT22;13773;48.868;10.730;2024-03-29T01:11:31;3.10;99.90
25983;DHT22;13773;48.868;10.730;2024-03-29T01:13:58;3.00;99.90
25983;DHT22;13773;48.868;10.730;2024-03-29T01:16:23;3.10;99.90
25983;DHT22;13773;48.868;10.730;2024-03-29T01:18:50;3.30;99.90
25983;DHT22;13773;48.868;10.730;2024-03-29T01:21:17;3.50;99.90
25983;DHT22;13773;48.868;10.730;2024-03-29T01:23:43;3.50;99.90
25983;DHT22;13773;48.868;10.730;2024-03-29T01:26:09;3.50;99.90
25983;DHT22;13773;48.868;10.730;2024-03-29T01:28:38;3.60;99.90
25983;DHT22;13773;48.868;10.730;2024-03-29T01:31:04;3.70;99.90
25983;DHT22;13773;48.868;10.730;2024-03-29T01:33:31;3.70;99.90
25983;DHT22;13773;48.868;10.730;2024-03-29T01:36:03;3.80;99.90
25983;DHT22;13773;48.868;10.730;2024-03-29T01:38:30;3.80;99.90
25983;DHT22;13773;48.868;10.730;2024-03-29T01:40:55;3.80;99.90
25983;DHT22;13773;48.868;10.730;2024-03-29T01:43:21;3.90;99.90
25983;DHT22;13773;48.868;10.730;2024-03-29T01:45:48;4.20;99.90
25983;DHT22;13773;48.868;10.730;2024-03-29T01:48:15;4.00;99.90
25983;DHT22;13773;48.868;10.730;2024-03-29T01:50:42;4.00;99.90
25983;DHT22;13773;48.868;10.730;2024-03-29T01:53:08;4.00;99.90
25983;DHT22;13773;48.868;10.730;2024-03-29T01:55:35;4.00;99.90
25983;DHT22;13773;48.868;10.730;2024-03-29T01:58:01;3.90;99.90
25983;DHT22;13773;48.868;10.730;2024-03-29T02:00:28;3.90;99.90
25983;DHT22;13773;48.868;10.730;2024-03-29T02:02:54;4.00;99.90
25983;DHT22;13773;48.868;10.730;2024-03-29T02:05:21;4.00;99.90
25983;DHT22;13773;48.868;10.730;2024-03-29T02:07:46;3.90;99.90
25983;DHT22;13773;48.868;10.730;2024-03-29T02:10:14;4.00;99.90
25983;DHT22;13773;48.868;10.730;2024-03-29T02:12:40;4.00;99.90
25983;DHT22;13773;48.868;10.730;2024-03-29T02:15:06;4.00;99.90
25983;DHT22;13773;48.868;10.730;2024-03-29T02:17:32;4.00;99.90
25983;DHT22;13773;48.868;10.730;2024-03-29T02:19:58;3.90;99.90
25983;DHT22;13773;48.868;10.730;2024-03-29T02:22:25;4.00;99.90
25983;DHT22;13773;48.868;10.730;2024-03-29T02:24:52;4.00;99.90
25983;DHT22;13773;48.868;10.730;2024-03-29T02:27:19;4.20;99.90
25983;DHT22;13773;48.868;10.730;2024-03-29T02:29:45;4.10;99.90
25983;DHT22;13773;48.868;10.730;2024-03-29T02:32:11;4.10;99.90
25983;DHT22;13773;48.868;10.730;2024-03-29T02:34:36;4.10;99.90
25983;DHT22;13773;48.868;10.730;2024-03-29T02:37:02;4.10;99.90
25983;DHT22;13773;48.868;10.730;2024-03-29T02:39:29;4.00;99.90
25983;DHT22;13773;48.868;10.730;2024-03-29T02:41:55;4.10;99.90
25983;DHT22;13773;48.868;10.730;2024-03-29T02:44:20;4.20;99.90
25983;DHT22;13773;48.868;10.730;2024-03-29T02:46:46;4.10;99.90
25983;DHT22;13773;48.868;10.730;2024-03-29T02:49:12;4.10;99.90
25983;DHT22;13773;48.868;10.730;2024-03-29T02:51:37;4.10;99.90
25983;DHT22;13773;48.868;10.730;2024-03-29T02:54:03;4.00;99.90
25983;DHT22;13773;48.868;10.730;2024-03-29T02:56:29;5.80;99.90
25983;DHT22;13773;48.868;10.730;2024-03-29T02:58:55;3.90;99.90
25983;DHT22;13773;48.868;10.730;2024-03-29T03:01:21;4.00;99.90
25983;DHT22;13773;48.868;10.730;2024-03-29T03:03:46;4.00;99.90
25983;DHT22;13773;48.868;10.730;2024-03-29T03:06:12;4.10;99.90
25983;DHT22;13773;48.868;10.730;2024-03-29T03:08:38;4.20;99.90
25983;DHT22;13773;48.868;10.730;2024-03-29T03:11:22;4.20;99.90
25983;DHT22;13773;48.868;10.730;2024-03-29T03:13:47;4.40;99.90
25983;DHT22;13773;48.868;10.730;2024-03-29T03:16:13;4.40;99.90
25983;DHT22;13773;48.868;10.730;2024-03-29T03:18:39;4.40;99.90
25983;DHT22;13773;48.868;10.730;2024-03-29T03:21:05;4.30;99.90
25983;DHT22;13773;48.868;10.730;2024-03-29T03:23:31;4.30;99.90
25983;DHT22;13773;48.868;10.730;2024-03-29T03:25:57;4.30;99.90
25983;DHT22;13773;48.868;10.730;2024-03-29T03:28:23;4.20;99.90
25983;DHT22;13773;48.868;10.730;2024-03-29T03:30:50;4.20;99.90
25983;DHT22;13773;48.868;10.730;2024-03-29T03:33:16;4.20;99.90
25983;DHT22;13773;48.868;10.730;2024-03-29T03:35:44;4.10;99.90
25983;DHT22;13773;48.868;10.730;2024-03-29T03:38:10;4.10;99.90
25983;DHT22;13773;48.868;10.730;2024-03-29T03:40:36;4.00;99.90
25983;DHT22;13773;48.868;10.730;2024-03-29T03:43:03;4.00;99.90
25983;DHT22;13773;48.868;10.730;2024-03-29T03:45:33;4.00;99.90
25983;DHT22;13773;48.868;10.730;2024-03-29T03:47:59;3.90;99.90
25983;DHT22;13773;48.868;10.730;2024-03-29T03:50:24;3.90;99.90
25983;DHT22;13773;48.868;10.730;2024-03-29T03:52:50;4.00;99.90
25983;DHT22;13773;48.868;10.730;2024-03-29T03:55:16;3.80;99.90
25983;DHT22;13773;48.868;10.730;2024-03-29T03:57:41;3.80;99.90
25983;DHT22;13773;48.868;10.730;2024-03-29T04:00:07;3.70;99.90
25983;DHT22;13773;48.868;10.730;2024-03-29T04:02:34;3.80;99.90
25983;DHT22;13773;48.868;10.730;2024-03-29T04:05:00;3.90;99.90
25983;DHT22;13773;48.868;10.730;2024-03-29T04:07:25;4.00;99.90
25983;DHT22;13773;48.868;10.730;2024-03-29T04:09:51;4.10;99.90
25983;DHT22;13773;48.868;10.730;2024-03-29T04:12:17;4.10;99.90
25983;DHT22;13773;48.868;10.730;2024-03-29T04:14:43;4.20;99.90
25983;DHT22;13773;48.868;10.730;2024-03-29T04:17:09;4.20;99.90
25983;DHT22;13773;48.868;10.730;2024-03-29T04:19:35;4.20;99.90
25983;DHT22;13773;48.868;10.730;2024-03-29T04:22:01;4.30;99.90
25983;DHT22;13773;48.868;10.730;2024-03-29T04:24:28;4.30;99.90
25983;DHT22;13773;48.868;10.730;2024-03-29T04:26:53;4.40;99.90
25983;DHT22;13773;48.868;10.730;2024-03-29T04:29:19;4.40;99.90
25983;DHT22;13773;48.868;10.730;2024-03-29T04:31:45;4.40;99.90
25983;DHT22;13773;48.868;10.730;2024-03-29T04:34:11;4.50;99.90
25983;DHT22;13773;48.868;10.730;2024-03-29T04:36:37;4.50;99.90
25983;DHT22;13773;48.868;10.730;2024-03-29T04:39:02;4.50;99.90
25983;DHT22;13773;48.868;10.730;2024-03-29T04:41:28;4.40;99.90
25983;DHT22;13773;48.868;10.730;2024-03-29T04:43:54;4.50;99.90
25983;DHT22;13773;48.868;10.730;2024-03-29T04:46:19;4.50;99.90
25983;DHT22;13773;48.868;10.730;2024-03-29T04:48:45;4.50;99.90
25983;DHT22;13773;48.868;10.730;2024-03-29T04:51:11;4.60;99.90
25983;DHT22;13773;48.868;10.730;2024-03-29T04:53:40;4.60;99.90
25983;DHT22;13773;48.868;10.730;2024-03-29T04:56:06;4.70;99.90
25983;DHT22;13773;48.868;10.730;2024-03-29T04:58:32;4.60;99.90
25983;DHT22;13773;48.868;10.730;2024-03-29T05:00:58;4.70;99.90
25983;DHT22;13773;48.868;10.730;2024-03-29T05:03:24;4.70;99.90
25983;DHT22;13773;48.868;10.730;2024-03-29T05:05:50;4.80;99.90
25983;DHT22;13773;48.868;10.730;2024-03-29T05:08:16;4.80;99.90
25983;DHT22;13773;48.868;10.730;2024-03-29T05:10:44;4.90;99.90
25983;DHT22;13773;48.868;10.730;2024-03-29T05:13:10;4.90;99.90
25983;DHT22;13773;48.868;10.730;2024-03-29T05:15:36;4.90;99.90
25983;DHT22;13773;48.868;10.730;2024-03-29T05:18:02;8.20;99.90
25983;DHT22;13773;48.868;10.730;2024-03-29T05:20:29;5.00;99.90
25983;DHT22;13773;48.868;10.730;2024-03-29T05:22:54;5.10;99.90
25983;DHT22;13773;48.868;10.730;2024-03-29T05:25:20;5.10;99.90
25983;DHT22;13773;48.868;10.730;2024-03-29T05:27:46;5.10;99.90
25983;DHT22;13773;48.868;10.730;2024-03-29T05:30:11;5.10;99.90
25983;DHT22;13773;48.868;10.730;2024-03-29T05:32:39;5.20;99.90
25983;DHT22;13773;48.868;10.730;2024-03-29T05:35:05;5.20;99.90
25983;DHT22;13773;48.868;10.730;2024-03-29T05:37:30;5.30;99.90
25983;DHT22;13773;48.868;10.730;2024-03-29T05:39:56;5.40;99.90
25983;DHT22;13773;48.868;10.730;2024-03-29T05:42:26;5.50;99.90
25983;DHT22;13773;48.868;10.730;2024-03-29T05:44:52;5.50;99.90
25983;DHT22;13773;48.868;10.730;2024-03-29T05:47:17;5.50;99.90
25983;DHT22;13773;48.868;10.730;2024-03-29T05:49:43;5.50;99.90
25983;DHT22;13773;48.868;10.730;2024-03-29T05:52:09;5.60;99.90
25983;DHT22;13773;48.868;10.730;2024-03-29T05:54:34;5.60;99.90
25983;DHT22;13773;48.868;10.730;2024-03-29T05:57:00;5.50;99.90
25983;DHT22;13773;48.868;10.730;2024-03-29T05:59:26;5.50;99.90
25983;DHT22;13773;48.868;10.730;2024-03-29T06:01:51;5.60;99.90
25983;DHT22;13773;48.868;10.730;2024-03-29T06:04:17;5.60;99.90
25983;DHT22;13773;48.868;10.730;2024-03-29T06:06:47;5.70;99.90
25983;DHT22;13773;48.868;10.730;2024-03-29T06:09:12;5.70;99.90
25983;DHT22;13773;48.868;10.730;2024-03-29T06:11:38;5.70;99.90
25983;DHT22;13773;48.868;10.730;2024-03-29T06:14:04;5.80;99.90
25983;DHT22;13773;48.868;10.730;2024-03-29T06:16:29;5.80;99.90
25983;DHT22;13773;48.868;10.730;2024-03-29T06:19:15;5.80;99.90
25983;DHT22;13773;48.868;10.730;2024-03-29T06:21:40;5.80;99.90
25983;DHT22;13773;48.868;10.730;2024-03-29T06:24:11;5.80;99.90
25983;DHT22;13773;48.868;10.730;2024-03-29T06:26:40;5.80;99.90
25983;DHT22;13773;48.868;10.730;2024-03-29T06:29:07;5.80;99.90
25983;DHT22;13773;48.868;10.730;2024-03-29T06:31:35;5.80;99.90
25983;DHT22;13773;48.868;10.730;2024-03-29T06:34:01;5.90;99.90
25983;DHT22;13773;48.868;10.730;2024-03-29T06:36:27;5.90;99.90
25983;DHT22;13773;48.868;10.730;2024-03-29T06:38:56;5.80;99.90
25983;DHT22;13773;48.868;10.730;2024-03-29T06:41:21;5.90;99.90
25983;DHT22;13773;48.868;10.730;2024-03-29T06:43:47;5.90;99.90
25983;DHT22;13773;48.868;10.730;2024-03-29T06:46:14;5.90;99.90
25983;DHT22;13773;48.868;10.730;2024-03-29T06:48:40;6.00;99.90
25983;DHT22;13773;48.868;10.730;2024-03-29T06:51:06;6.00;99.90
25983;DHT22;13773;48.868;10.730;2024-03-29T06:53:31;6.00;99.90
25983;DHT22;13773;48.868;10.730;2024-03-29T06:56:00;6.00;99.90
25983;DHT22;13773;48.868;10.730;2024-03-29T06:58:26;6.20;99.90
25983;DHT22;13773;48.868;10.730;2024-03-29T07:00:51;6.20;99.90
25983;DHT22;13773;48.868;10.730;2024-03-29T07:03:18;6.30;99.90
25983;DHT22;13773;48.868;10.730;2024-03-29T07:05:45;6.50;99.90
25983;DHT22;13773;48.868;10.730;2024-03-29T07:08:11;6.70;99.90
25983;DHT22;13773;48.868;10.730;2024-03-29T07:10:37;6.90;99.90
25983;DHT22;13773;48.868;10.730;2024-03-29T07:13:03;7.00;99.90
25983;DHT22;13773;48.868;10.730;2024-03-29T07:15:28;7.10;99.90
25983;DHT22;13773;48.868;10.730;2024-03-29T07:17:54;7.10;99.90
25983;DHT22;13773;48.868;10.730;2024-03-29T07:20:20;7.10;99.90
25983;DHT22;13773;48.868;10.730;2024-03-29T07:22:45;7.20;99.90
25983;DHT22;13773;48.868;10.730;2024-03-29T07:25:11;7.30;99.90
25983;DHT22;13773;48.868;10.730;2024-03-29T07:27:37;7.30;99.90
25983;DHT22;13773;48.868;10.730;2024-03-29T07:30:03;7.40;99.90
25983;DHT22;13773;48.868;10.730;2024-03-29T07:32:30;7.40;99.90
25983;DHT22;13773;48.868;10.730;2024-03-29T07:34:56;7.50;99.90
25983;DHT22;13773;48.868;10.730;2024-03-29T07:37:24;7.60;99.90
25983;DHT22;13773;48.868;10.730;2024-03-29T07:39:50;7.60;99.90
25983;DHT22;13773;48.868;10.730;2024-03-29T07:42:16;7.80;99.90
25983;DHT22;13773;48.868;10.730;2024-03-29T07:44:41;7.90;99.90
25983;DHT22;13773;48.868;10.730;2024-03-29T07:47:07;7.80;99.90
25983;DHT22;13773;48.868;10.730;2024-03-29T07:49:33;7.60;99.90
25983;DHT22;13773;48.868;10.730;2024-03-29T07:51:59;7.50;99.90
25983;DHT22;13773;48.868;10.730;2024-03-29T07:54:27;7.60;99.90
25983;DHT22;13773;48.868;10.730;2024-03-29T07:56:53;7.40;99.90
25983;DHT22;13773;48.868;10.730;2024-03-29T07:59:19;7.20;99.90
25983;DHT22;13773;48.868;10.730;2024-03-29T08:01:45;7.10;99.90
25983;DHT22;13773;48.868;10.730;2024-03-29T08:04:11;7.00;99.90
25983;DHT22;13773;48.868;10.730;2024-03-29T08:06:36;7.10;99.90
25983;DHT22;13773;48.868;10.730;2024-03-29T08:09:02;7.00;99.90
25983;DHT22;13773;48.868;10.730;2024-03-29T08:11:28;7.00;99.90
25983;DHT22;13773;48.868;10.730;2024-03-29T08:13:54;7.00;99.90
25983;DHT22;13773;48.868;10.730;2024-03-29T08:16:19;7.00;99.90
25983;DHT22;13773;48.868;10.730;2024-03-29T08:18:46;6.90;99.90
25983;DHT22;13773;48.868;10.730;2024-03-29T08:21:14;6.90;99.90
25983;DHT22;13773;48.868;10.730;2024-03-29T08:23:40;6.90;99.90
25983;DHT22;13773;48.868;10.730;2024-03-29T08:26:07;6.80;99.90
25983;DHT22;13773;48.868;10.730;2024-03-29T08:28:33;6.80;99.90
25983;DHT22;13773;48.868;10.730;2024-03-29T08:31:04;6.80;99.90
25983;DHT22;13773;48.868;10.730;2024-03-29T08:33:30;6.70;99.90
25983;DHT22;13773;48.868;10.730;2024-03-29T08:35:56;6.70;99.90
25983;DHT22;13773;48.868;10.730;2024-03-29T08:38:23;6.70;99.90
25983;DHT22;13773;48.868;10.730;2024-03-29T08:40:49;6.70;99.90
25983;DHT22;13773;48.868;10.730;2024-03-29T08:43:15;6.80;99.90
25983;DHT22;13773;48.868;10.730;2024-03-29T08:45:44;6.90;99.90
25983;DHT22;13773;48.868;10.730;2024-03-29T08:48:10;7.10;99.90
25983;DHT22;13773;48.868;10.730;2024-03-29T08:50:37;7.10;99.90
25983;DHT22;13773;48.868;10.730;2024-03-29T08:53:03;7.10;99.90
25983;DHT22;13773;48.868;10.730;2024-03-29T08:55:30;7.20;99.90
25983;DHT22;13773;48.868;10.730;2024-03-29T08:57:58;7.40;99.90
25983;DHT22;13773;48.868;10.730;2024-03-29T09:00:28;7.60;99.90
25983;DHT22;13773;48.868;10.730;2024-03-29T09:02:54;7.60;99.90
25983;DHT22;13773;48.868;10.730;2024-03-29T09:05:20;8.00;99.90
25983;DHT22;13773;48.868;10.730;2024-03-29T09:07:45;8.10;99.90
25983;DHT22;13773;48.868;10.730;2024-03-29T09:10:12;8.20;99.90
25983;DHT22;13773;48.868;10.730;2024-03-29T09:12:38;8.50;99.90
25983;DHT22;13773;48.868;10.730;2024-03-29T09:15:04;8.90;99.90
25983;DHT22;13773;48.868;10.730;2024-03-29T09:17:34;9.20;99.90
25983;DHT22;13773;48.868;10.730;2024-03-29T09:20:00;9.30;99.90
25983;DHT22;13773;48.868;10.730;2024-03-29T09:22:25;9.10;99.90
25983;DHT22;13773;48.868;10.730;2024-03-29T09:24:51;9.20;99.90
25983;DHT22;13773;48.868;10.730;2024-03-29T09:27:17;9.50;99.90
25983;DHT22;13773;48.868;10.730;2024-03-29T09:29:42;9.60;99.90
25983;DHT22;13773;48.868;10.730;2024-03-29T09:32:08;9.30;99.90
25983;DHT22;13773;48.868;10.730;2024-03-29T09:34:34;9.50;99.90
25983;DHT22;13773;48.868;10.730;2024-03-29T09:37:00;9.60;99.90
25983;DHT22;13773;48.868;10.730;2024-03-29T09:39:26;9.50;99.90
25983;DHT22;13773;48.868;10.730;2024-03-29T09:41:53;9.30;99.90
25983;DHT22;13773;48.868;10.730;2024-03-29T09:44:21;9.20;99.90
25983;DHT22;13773;48.868;10.730;2024-03-29T09:46:48;9.60;99.90
25983;DHT22;13773;48.868;10.730;2024-03-29T09:49:15;9.40;99.90
25983;DHT22;13773;48.868;10.730;2024-03-29T09:51:42;9.90;99.90
25983;DHT22;13773;48.868;10.730;2024-03-29T09:54:09;9.90;99.90
25983;DHT22;13773;48.868;10.730;2024-03-29T09:56:38;10.20;99.90
25983;DHT22;13773;48.868;10.730;2024-03-29T09:59:05;10.20;99.90
25983;DHT22;13773;48.868;10.730;2024-03-29T10:01:31;10.60;99.90
25983;DHT22;13773;48.868;10.730;2024-03-29T10:03:57;11.10;99.90
25983;DHT22;13773;48.868;10.730;2024-03-29T10:06:24;11.10;99.90
25983;DHT22;13773;48.868;10.730;2024-03-29T10:08:50;11.00;99.90
25983;DHT22;13773;48.868;10.730;2024-03-29T10:11:20;11.00;99.90
25983;DHT22;13773;48.868;10.730;2024-03-29T10:13:46;11.20;99.90
25983;DHT22;13773;48.868;10.730;2024-03-29T10:16:12;11.40;99.90
25983;DHT22;13773;48.868;10.730;2024-03-29T10:18:41;11.50;99.90
25983;DHT22;13773;48.868;10.730;2024-03-29T10:21:09;12.00;99.90
25983;DHT22;13773;48.868;10.730;2024-03-29T10:23:35;11.90;99.90
25983;DHT22;13773;48.868;10.730;2024-03-29T10:26:02;12.30;99.90
25983;DHT22;13773;48.868;10.730;2024-03-29T10:28:31;12.30;99.90
25983;DHT22;13773;48.868;10.730;2024-03-29T10:31:02;12.10;99.90
25983;DHT22;13773;48.868;10.730;2024-03-29T10:33:31;13.80;99.90
25983;DHT22;13773;48.868;10.730;2024-03-29T10:36:01;11.70;99.90
25983;DHT22;13773;48.868;10.730;2024-03-29T10:38:29;11.60;99.90
25983;DHT22;13773;48.868;10.730;2024-03-29T10:40:54;12.00;99.90
25983;DHT22;13773;48.868;10.730;2024-03-29T10:43:21;12.10;99.90
25983;DHT22;13773;48.868;10.730;2024-03-29T10:45:48;12.10;99.90
25983;DHT22;13773;48.868;10.730;2024-03-29T10:48:16;12.30;99.90
25983;DHT22;13773;48.868;10.730;2024-03-29T10:50:43;12.40;99.90
25983;DHT22;13773;48.868;10.730;2024-03-29T10:53:09;12.00;99.90
25983;DHT22;13773;48.868;10.730;2024-03-29T10:55:37;11.90;99.90
25983;DHT22;13773;48.868;10.730;2024-03-29T10:58:06;11.80;99.90
25983;DHT22;13773;48.868;10.730;2024-03-29T11:00:38;11.60;99.90
25983;DHT22;13773;48.868;10.730;2024-03-29T11:05:55;11.40;99.90
25983;DHT22;13773;48.868;10.730;2024-03-29T11:08:27;11.60;99.90
25983;DHT22;13773;48.868;10.730;2024-03-29T11:10:58;11.80;99.90
25983;DHT22;13773;48.868;10.730;2024-03-29T11:13:42;11.50;99.90
25983;DHT22;13773;48.868;10.730;2024-03-29T11:16:11;11.50;99.90
25983;DHT22;13773;48.868;10.730;2024-03-29T11:18:37;11.80;99.90
25983;DHT22;13773;48.868;10.730;2024-03-29T11:21:04;12.10;99.90
25983;DHT22;13773;48.868;10.730;2024-03-29T11:23:35;12.10;99.90
25983;DHT22;13773;48.868;10.730;2024-03-29T11:26:01;11.90;99.90
25983;DHT22;13773;48.868;10.730;2024-03-29T11:28:33;12.00;99.90
25983;DHT22;13773;48.868;10.730;2024-03-29T11:31:07;12.30;99.90
25983;DHT22;13773;48.868;10.730;2024-03-29T11:33:35;12.30;99.90
25983;DHT22;13773;48.868;10.730;2024-03-29T11:36:15;12.20;99.90
25983;DHT22;13773;48.868;10.730;2024-03-29T11:38:42;12.20;99.90
25983;DHT22;13773;48.868;10.730;2024-03-29T11:41:13;12.50;99.90
25983;DHT22;13773;48.868;10.730;2024-03-29T11:43:39;12.40;99.90
25983;DHT22;13773;48.868;10.730;2024-03-29T11:46:07;12.30;99.90
25983;DHT22;13773;48.868;10.730;2024-03-29T11:48:34;12.10;99.90
25983;DHT22;13773;48.868;10.730;2024-03-29T11:51:02;12.00;99.90
25983;DHT22;13773;48.868;10.730;2024-03-29T11:53:29;12.50;99.90
25983;DHT22;13773;48.868;10.730;2024-03-29T11:55:59;12.70;99.90
25983;DHT22;13773;48.868;10.730;2024-03-29T11:58:26;12.70;99.90
25983;DHT22;13773;48.868;10.730;2024-03-29T12:00:53;12.80;99.90
25983;DHT22;13773;48.868;10.730;2024-03-29T12:03:21;13.30;99.90
25983;DHT22;13773;48.868;10.730;2024-03-29T12:05:48;12.90;99.90
25983;DHT22;13773;48.868;10.730;2024-03-29T12:08:16;13.00;99.90
25983;DHT22;13773;48.868;10.730;2024-03-29T12:10:41;12.90;99.90
25983;DHT22;13773;48.868;10.730;2024-03-29T12:13:08;13.20;99.90
25983;DHT22;13773;48.868;10.730;2024-03-29T12:15:34;13.40;99.90
25983;DHT22;13773;48.868;10.730;2024-03-29T12:18:02;13.80;99.90
25983;DHT22;13773;48.868;10.730;2024-03-29T12:20:32;14.30;99.90
25983;DHT22;13773;48.868;10.730;2024-03-29T12:23:02;14.50;99.90
25983;DHT22;13773;48.868;10.730;2024-03-29T12:25:29;14.90;99.90
25983;DHT22;13773;48.868;10.730;2024-03-29T12:27:55;17.50;99.90
25983;DHT22;13773;48.868;10.730;2024-03-29T12:30:21;15.50;99.90
25983;DHT22;13773;48.868;10.730;2024-03-29T12:32:46;14.70;99.90
25983;DHT22;13773;48.868;10.730;2024-03-29T12:35:14;15.50;99.90
25983;DHT22;13773;48.868;10.730;2024-03-29T12:37:50;15.20;99.90
25983;DHT22;13773;48.868;10.730;2024-03-29T12:40:17;15.30;99.90
25983;DHT22;13773;48.868;10.730;2024-03-29T12:42:50;15.70;99.90
25983;DHT22;13773;48.868;10.730;2024-03-29T12:45:17;16.00;99.90
25983;DHT22;13773;48.868;10.730;2024-03-29T12:47:44;15.90;99.90
25983;DHT22;13773;48.868;10.730;2024-03-29T12:50:13;15.10;99.90
25983;DHT22;13773;48.868;10.730;2024-03-29T12:52:40;15.00;99.90
25983;DHT22;13773;48.868;10.730;2024-03-29T12:55:07;15.40;99.90
25983;DHT22;13773;48.868;10.730;2024-03-29T12:57:37;15.80;99.90
25983;DHT22;13773;48.868;10.730;2024-03-29T13:00:06;15.90;99.90
25983;DHT22;13773;48.868;10.730;2024-03-29T13:02:37;16.20;99.90
25983;DHT22;13773;48.868;10.730;2024-03-29T13:05:04;16.30;99.90
25983;DHT22;13773;48.868;10.730;2024-03-29T13:07:33;15.80;99.90
25983;DHT22;13773;48.868;10.730;2024-03-29T13:10:03;15.70;99.90
25983;DHT22;13773;48.868;10.730;2024-03-29T13:12:32;15.70;99.90
25983;DHT22;13773;48.868;10.730;2024-03-29T13:15:03;16.00;99.90
25983;DHT22;13773;48.868;10.730;2024-03-29T13:17:32;16.30;99.90
25983;DHT22;13773;48.868;10.730;2024-03-29T13:19:58;16.10;99.90
25983;DHT22;13773;48.868;10.730;2024-03-29T13:22:24;16.60;99.90
25983;DHT22;13773;48.868;10.730;2024-03-29T13:24:50;16.50;99.90
25983;DHT22;13773;48.868;10.730;2024-03-29T13:27:16;16.60;99.90
25983;DHT22;13773;48.868;10.730;2024-03-29T13:29:42;17.10;99.90
25983;DHT22;13773;48.868;10.730;2024-03-29T13:32:07;17.40;99.90
25983;DHT22;13773;48.868;10.730;2024-03-29T13:34:33;17.50;99.90
25983;DHT22;13773;48.868;10.730;2024-03-29T13:36:59;17.60;99.90
25983;DHT22;13773;48.868;10.730;2024-03-29T13:39:25;17.00;99.90
25983;DHT22;13773;48.868;10.730;2024-03-29T13:41:50;17.10;99.90
25983;DHT22;13773;48.868;10.730;2024-03-29T13:44:18;17.40;99.90
25983;DHT22;13773;48.868;10.730;2024-03-29T13:46:44;17.30;99.90
25983;DHT22;13773;48.868;10.730;2024-03-29T13:49:10;17.60;99.90
25983;DHT22;13773;48.868;10.730;2024-03-29T13:51:37;17.80;99.90
25983;DHT22;13773;48.868;10.730;2024-03-29T13:54:03;18.10;99.90
25983;DHT22;13773;48.868;10.730;2024-03-29T13:56:29;18.30;99.90
25983;DHT22;13773;48.868;10.730;2024-03-29T13:58:54;18.50;99.90
25983;DHT22;13773;48.868;10.730;2024-03-29T14:01:20;18.40;99.90
25983;DHT22;13773;48.868;10.730;2024-03-29T14:03:46;17.90;99.90
25983;DHT22;13773;48.868;10.730;2024-03-29T14:06:11;17.50;99.90
25983;DHT22;13773;48.868;10.730;2024-03-29T14:08:37;17.40;99.90
25983;DHT22;13773;48.868;10.730;2024-03-29T14:11:03;20.30;99.90
25983;DHT22;13773;48.868;10.730;2024-03-29T14:13:29;18.10;99.90
25983;DHT22;13773;48.868;10.730;2024-03-29T14:15:55;18.60;99.90
25983;DHT22;13773;48.868;10.730;2024-03-29T14:18:21;18.60;99.90
25983;DHT22;13773;48.868;10.730;2024-03-29T14:20:47;18.50;99.90
25983;DHT22;13773;48.868;10.730;2024-03-29T14:23:12;18.80;99.90
25983;DHT22;13773;48.868;10.730;2024-03-29T14:25:42;18.20;99.90
25983;DHT22;13773;48.868;10.730;2024-03-29T14:28:08;17.70;99.90
25983;DHT22;13773;48.868;10.730;2024-03-29T14:30:34;18.00;99.90
25983;DHT22;13773;48.868;10.730;2024-03-29T14:33:01;18.20;99.90
25983;DHT22;13773;48.868;10.730;2024-03-29T14:35:28;18.10;99.90
25983;DHT22;13773;48.868;10.730;2024-03-29T14:37:56;18.00;99.90
25983;DHT22;13773;48.868;10.730;2024-03-29T14:40:22;18.20;99.90
25983;DHT22;13773;48.868;10.730;2024-03-29T14:42:48;18.20;99.90
25983;DHT22;13773;48.868;10.730;2024-03-29T14:45:13;18.40;99.90
25983;DHT22;13773;48.868;10.730;2024-03-29T14:47:39;18.40;99.90
25983;DHT22;13773;48.868;10.730;2024-03-29T14:50:05;18.40;99.90
25983;DHT22;13773;48.868;10.730;2024-03-29T14:52:35;18.40;99.90
25983;DHT22;13773;48.868;10.730;2024-03-29T14:55:01;18.30;99.90
25983;DHT22;13773;48.868;10.730;2024-03-29T14:57:26;18.20;99.90
25983;DHT22;13773;48.868;10.730;2024-03-29T14:59:52;18.20;99.90
25983;DHT22;13773;48.868;10.730;2024-03-29T15:02:18;18.10;99.90
25983;DHT22;13773;48.868;10.730;2024-03-29T15:04:44;17.70;99.90
25983;DHT22;13773;48.868;10.730;2024-03-29T15:07:10;17.40;99.90
25983;DHT22;13773;48.868;10.730;2024-03-29T15:09:35;17.40;99.90
25983;DHT22;13773;48.868;10.730;2024-03-29T15:12:01;17.40;99.90
25983;DHT22;13773;48.868;10.730;2024-03-29T15:14:31;17.40;99.90
25983;DHT22;13773;48.868;10.730;2024-03-29T15:16:56;17.40;99.90
25983;DHT22;13773;48.868;10.730;2024-03-29T15:19:22;17.40;99.90
25983;DHT22;13773;48.868;10.730;2024-03-29T15:21:48;17.40;99.90
25983;DHT22;13773;48.868;10.730;2024-03-29T15:24:15;17.60;99.90